Kezdőlap
METAR-TAF:

METAR-TAF

Repülőterek :

Midland, Texas, Amerikai Egyesült Államok

földrajzi szélesség: 31-56-52N, földrajzi hosszúság: 102-12-31W, magasság: 875 m

Jelenlegi meteorológiai megfigyelések

A jelentés 1 órával és 6 perccel ezelõtt készült, 14:53 UTC
Déli szél 20 kt
Hőmérséklet 27°C
Páratartalom 66%
Légköri nyomás 1009 hPa
Látótávolság: 16.1 km
Derült ég

METAR: KMAF 181453Z 19020KT 10SM CLR 27/20 A2980 RMK AO2 PK WND 19028/1417 SLP039 T02720200 51009

Idő: 10:59 (15:59 UTC)

Előrejelzés

A jelentés 43 perccel ezelõtt készült, 15:16 UTC
Az előrejelzés 18-én 15 óra UTC és 19-én 12 óra UTC között érvényes
Déli szél 20 kt széllökések: 30 kt
Látótávolság: 10 km
Kevés felhő 6000 lábon
19-én 0700 órától UTC szerint
Délkeleti szél 15 kt
Látótávolság: 10 km
Kevés felhő 25000 lábon

TAF: KMAF 181516Z 1815/1912 18020G30KT P6SM FEW060 FM190700 14015KT P6SM FEW250

Meteorológiai megfigyelések és előrejelzések több, mint 4000 repülőtéren (METAR és TAF jelentéseket).

A térképen piros és sárga pontok jelzik az elérhető meteorológiai állomásokat.

Mozgassa az egeret a pont fölött, hogy megjelenjen az állomás neve.

Azután kattintson az időjárási megfigyelések és előrejelzések megtekintéséhez.

A térkép megváltoztatása: kattintson a fekete keresztel jelölt zöld gombra ráközelítéshez, a vonallal jelölt zöld gombra távolításhoz, vagy a zöld nyilakra a szomszédos térképek eléréséhez.


METAR-TAF: